Time;durP1;ratioP1;P1;durP2;ratioP2;P2;SDS_P1;SDS_P2;PMS_P1;PMS_P2;Temp;Humidity;BMP_temperature;BMP_pressure;BME280_temperature;BME280_humidity;BME280_pressure;Samples;Min_cycle;Max_cycle;Signal;HPM_P1;HPM_P2
2022/10/05 00:01:57;;;;;;;2.73;2.53;;;;;;;10.04;100.00;97299.28;4920471;29;20310;-65
2022/10/05 00:04:28;;;;;;;2.30;2.20;;;;;;;10.06;100.00;97293.91;4919750;29;20632;-65
2022/10/05 00:06:57;;;;;;;3.30;2.57;;;;;;;10.08;100.00;97292.81;4918956;29;20203;-65
2022/10/05 00:09:24;;;;;;;2.67;2.47;;;;;;;10.16;100.00;97292.22;4918811;29;20208;-64
2022/10/05 00:11:51;;;;;;;5.67;2.90;;;;;;;10.14;100.00;97286.16;4934944;29;20590;-64
2022/10/05 00:14:20;;;;;;;2.63;2.23;;;;;;;10.06;100.00;97283.31;4932049;29;20303;-65
2022/10/05 00:16:47;;;;;;;3.00;2.50;;;;;;;10.07;100.00;97282.34;4930058;29;20223;-64
2022/10/05 00:19:29;;;;;;;2.70;2.50;;;;;;;10.02;100.00;97278.25;4928931;29;20231;-64
2022/10/05 00:21:57;;;;;;;2.83;2.50;;;;;;;10.10;100.00;97279.44;4908649;29;20303;-64
2022/10/05 00:24:23;;;;;;;3.30;2.40;;;;;;;10.07;100.00;97279.69;4918938;29;20324;-64
2022/10/05 00:26:51;;;;;;;4.63;2.30;;;;;;;10.02;100.00;97279.25;4918785;29;20211;-65
2022/10/05 00:29:21;;;;;;;2.77;2.50;;;;;;;9.96;100.00;97275.28;4918595;29;20294;-65
2022/10/05 00:31:48;;;;;;;2.30;2.17;;;;;;;9.97;100.00;97280.47;4918364;29;20215;-63
2022/10/05 00:34:15;;;;;;;4.60;2.70;;;;;;;9.97;100.00;97290.19;4918690;29;20290;-65
2022/10/05 00:36:43;;;;;;;2.60;2.37;;;;;;;9.94;100.00;97283.34;4902238;29;20289;-65
2022/10/05 00:39:10;;;;;;;6.83;2.60;;;;;;;9.92;100.00;97287.91;4918701;29;20666;-64
2022/10/05 00:41:45;;;;;;;2.53;2.33;;;;;;;9.92;100.00;97287.91;4909251;29;20236;-65
2022/10/05 00:44:23;;;;;;;3.00;2.80;;;;;;;9.93;100.00;97294.88;4918103;29;20262;-65
2022/10/05 00:46:55;;;;;;;2.53;2.40;;;;;;;9.92;100.00;97282.63;4919172;29;20214;-64
2022/10/05 00:49:32;;;;;;;2.50;2.30;;;;;;;9.88;100.00;97286.47;4907147;29;20250;-64
2022/10/05 00:52:06;;;;;;;3.30;2.60;;;;;;;9.88;100.00;97286.47;4922570;29;20299;-65
2022/10/05 00:54:37;;;;;;;3.63;2.37;;;;;;;9.85;100.00;97281.44;4923989;29;20231;-65
2022/10/05 00:57:18;;;;;;;3.33;2.50;;;;;;;9.83;100.00;97291.28;4903933;29;20315;-64
2022/10/05 00:59:51;;;;;;;3.73;2.70;;;;;;;9.81;100.00;97285.28;4917920;29;20290;-64
2022/10/05 01:02:25;;;;;;;2.97;2.60;;;;;;;9.79;100.00;97289.84;4926154;29;20267;-65
2022/10/05 01:04:54;;;;;;;4.23;2.90;;;;;;;9.77;100.00;97289.16;4932297;29;20254;-66
2022/10/05 01:07:29;;;;;;;2.83;2.50;;;;;;;9.73;100.00;97286.88;4936430;29;20254;-66
2022/10/05 01:10:03;;;;;;;4.60;2.60;;;;;;;9.72;100.00;97280.75;4930542;29;20683;-65
2022/10/05 01:12:35;;;;;;;4.63;2.60;;;;;;;9.72;100.00;97275.47;4925344;29;20227;-66
2022/10/05 01:15:05;;;;;;;2.73;2.53;;;;;;;9.68;100.00;97275.81;4941724;29;20194;-66
2022/10/05 01:17:39;;;;;;;6.20;2.80;;;;;;;9.67;100.00;97274.97;4941186;29;20208;-65
2022/10/05 01:20:16;;;;;;;3.27;2.23;;;;;;;9.67;100.00;97269.69;4935207;29;20231;-65
2022/10/05 01:22:57;;;;;;;4.70;2.63;;;;;;;9.65;100.00;97271.63;4924475;29;20290;-64
2022/10/05 01:25:29;;;;;;;2.53;2.43;;;;;;;9.61;100.00;97264.91;4922277;29;20737;-64
2022/10/05 01:28:02;;;;;;;2.70;2.50;;;;;;;9.61;100.00;97256.13;4922722;29;20232;-65
2022/10/05 01:30:32;;;;;;;3.93;2.30;;;;;;;9.60;100.00;97254.47;4923113;29;20220;-64
2022/10/05 01:33:03;;;;;;;2.00;1.90;;;;;;;9.59;100.00;97260.72;4918142;29;20299;-65
2022/10/05 01:35:39;;;;;;;4.63;2.10;;;;;;;9.58;100.00;97254.59;4915541;29;20291;-64
2022/10/05 01:38:17;;;;;;;3.73;2.40;;;;;;;9.52;100.00;97251.59;4922147;29;20294;-65
2022/10/05 01:40:51;;;;;;;2.90;2.30;;;;;;;9.51;100.00;97256.03;4924506;29;20299;-65
2022/10/05 01:43:23;;;;;;;2.67;2.47;;;;;;;9.54;100.00;97261.06;4925201;29;20215;-65
2022/10/05 01:45:59;;;;;;;4.67;2.30;;;;;;;9.53;100.00;97261.22;4924594;29;20248;-65
2022/10/05 01:48:34;;;;;;;2.10;1.90;;;;;;;9.55;100.00;97264.56;4925768;29;20223;-65
2022/10/05 01:51:08;;;;;;;2.00;1.90;;;;;;;9.53;100.00;97269.94;4920527;29;20234;-65
2022/10/05 01:53:43;;;;;;;2.90;2.23;;;;;;;9.53;100.00;97264.66;4920902;29;20203;-65
2022/10/05 01:56:14;;;;;;;1.90;1.80;;;;;;;9.52;100.00;97272.72;4924675;29;20214;-63
2022/10/05 01:58:49;;;;;;;5.03;2.00;;;;;;;9.52;100.00;97275.38;4921182;29;20208;-64
2022/10/05 02:01:21;;;;;;;2.00;1.80;;;;;;;9.49;100.00;97279.09;4920391;29;20305;-65
2022/10/05 02:03:51;;;;;;;2.10;1.80;;;;;;;9.48;100.00;97272.13;4920484;29;20633;-65
2022/10/05 02:06:22;;;;;;;2.60;1.90;;;;;;;9.49;100.00;97279.09;4920363;29;20327;-65
2022/10/05 02:08:54;;;;;;;1.70;1.60;;;;;;;9.45;100.00;97262.66;4920949;29;20214;-64
2022/10/05 02:11:21;;;;;;;1.73;1.60;;;;;;;9.40;100.00;97266.59;4920175;29;20311;-63
2022/10/05 02:13:51;;;;;;;4.10;2.07;;;;;;;9.37;100.00;97264.22;4920216;29;20243;-64
2022/10/05 02:16:20;;;;;;;3.33;1.93;;;;;;;9.37;100.00;97258.94;4920294;29;20282;-65
2022/10/05 02:18:50;;;;;;;2.27;2.10;;;;;;;9.33;100.00;97255.69;4920244;29;20725;-64
2022/10/05 02:21:17;;;;;;;2.10;1.90;;;;;;;9.30;100.00;97252.44;4918656;29;20291;-65
2022/10/05 02:23:44;;;;;;;2.00;1.90;;;;;;;9.30;100.00;97255.09;4920113;29;20299;-64
2022/10/05 02:26:12;;;;;;;2.73;2.00;;;;;;;9.28;100.00;97263.13;4920274;29;20327;-64
2022/10/05 02:28:42;;;;;;;2.37;1.67;;;;;;;9.29;100.00;97256.88;4920390;29;20302;-64
2022/10/05 02:31:12;;;;;;;8.37;1.90;;;;;;;9.28;100.00;97257.84;4919624;29;20299;-64
2022/10/05 02:33:39;;;;;;;2.00;1.80;;;;;;;9.28;100.00;97260.47;4920175;29;20208;-65
2022/10/05 02:36:12;;;;;;;2.50;1.83;;;;;;;9.23;100.00;97256.53;4919623;29;20303;-64
2022/10/05 02:38:47;;;;;;;2.10;2.00;;;;;;;9.23;100.00;97251.25;4919762;29;20207;-65
2022/10/05 02:41:19;;;;;;;3.27;1.80;;;;;;;9.20;100.00;97249.69;4919317;29;20537;-65
2022/10/05 02:43:52;;;;;;;2.10;1.60;;;;;;;9.19;100.00;97250.66;4921390;29;20291;-64
2022/10/05 02:46:26;;;;;;;4.20;1.77;;;;;;;9.16;100.00;97252.69;4908708;29;20335;-65
2022/10/05 02:49:02;;;;;;;3.07;1.70;;;;;;;9.11;100.00;97253.03;4920162;29;20277;-65
2022/10/05 02:51:39;;;;;;;2.73;1.90;;;;;;;9.09;100.00;97254.13;4919760;29;20235;-64
2022/10/05 02:54:14;;;;;;;2.17;1.40;;;;;;;9.10;100.00;97250.53;4919979;29;20290;-65
2022/10/05 02:56:47;;;;;;;2.17;1.60;;;;;;;9.07;100.00;97250.78;4919618;29;20290;-65
2022/10/05 02:59:18;;;;;;;2.90;1.77;;;;;;;9.04;100.00;97251.84;4919998;29;20299;-64
2022/10/05 03:01:49;;;;;;;3.17;2.03;;;;;;;9.09;100.00;97251.50;4918692;29;20649;-64
2022/10/05 03:04:24;;;;;;;5.10;1.93;;;;;;;9.04;100.00;97253.63;4920075;29;20294;-64
2022/10/05 03:06:58;;;;;;;5.50;1.60;;;;;;;9.03;100.00;97254.59;4919536;29;20306;-63
2022/10/05 03:09:29;;;;;;;1.60;1.50;;;;;;;8.98;100.00;97250.53;4919256;29;20400;-64
2022/10/05 03:12:06;;;;;;;1.50;1.40;;;;;;;8.95;100.00;97248.13;4919647;29;20591;-64
2022/10/05 03:14:38;;;;;;;3.07;1.40;;;;;;;8.94;100.00;97241.16;4889360;29;20212;-64
2022/10/05 03:17:12;;;;;;;1.83;1.70;;;;;;;8.93;100.00;97241.28;4919588;29;20218;-65
2022/10/05 03:19:55;;;;;;;1.80;1.70;;;;;;;8.90;100.00;97234.44;4919280;29;20230;-64
2022/10/05 03:22:29;;;;;;;2.10;1.50;;;;;;;8.87;100.00;97239.97;4919306;29;20282;-65
2022/10/05 03:25:12;;;;;;;5.20;2.20;;;;;;;8.90;100.00;97237.06;4919221;29;20224;-63
2022/10/05 03:27:44;;;;;;;3.10;2.00;;;;;;;8.89;100.00;97243.31;4918915;29;20649;-65
2022/10/05 03:30:14;;;;;;;2.40;1.90;;;;;;;8.88;100.00;97228.47;4919071;29;20223;-64
2022/10/05 03:32:51;;;;;;;2.07;1.60;;;;;;;8.87;100.00;97239.09;4919105;29;20287;-65
2022/10/05 03:35:22;;;;;;;2.30;2.10;;;;;;;8.88;100.00;97236.38;4919247;29;20287;-65
2022/10/05 03:37:53;;;;;;;2.70;1.70;;;;;;;8.89;100.00;97240.66;4919170;29;20599;-65
2022/10/05 03:40:26;;;;;;;3.80;1.97;;;;;;;8.89;100.00;97239.84;4918958;29;20286;-64
2022/10/05 03:42:59;;;;;;;2.07;1.80;;;;;;;8.90;100.00;97229.16;4907197;29;20293;-65
2022/10/05 03:45:30;;;;;;;3.53;1.80;;;;;;;8.86;100.00;97237.41;4918873;29;20261;-64
2022/10/05 03:48:03;;;;;;;3.43;2.13;;;;;;;8.86;100.00;97232.16;4918900;29;20239;-63
2022/10/05 03:50:40;;;;;;;2.50;1.73;;;;;;;8.83;100.00;97233.22;4918787;29;20286;-64
2022/10/05 03:53:14;;;;;;;2.43;1.73;;;;;;;8.81;100.00;97235.16;4918812;29;20207;-63
2022/10/05 03:55:45;;;;;;;2.20;2.00;;;;;;;8.80;100.00;97246.66;4918405;29;20231;-65
2022/10/05 03:58:15;;;;;;;2.33;1.83;;;;;;;8.76;100.00;97241.72;4918744;29;20222;-64
2022/10/05 04:00:43;;;;;;;2.20;2.10;;;;;;;8.77;100.00;97253.97;4918390;29;20286;-64
2022/10/05 04:03:16;;;;;;;2.73;2.10;;;;;;;8.78;100.00;97240.69;4918170;29;20731;-65
2022/10/05 04:05:45;;;;;;;4.27;2.30;;;;;;;8.74;100.00;97244.50;4918653;29;20319;-65
2022/10/05 04:08:18;;;;;;;3.90;2.77;;;;;;;8.74;100.00;97244.50;4918512;29;20207;-65
2022/10/05 04:10:47;;;;;;;2.80;2.10;;;;;;;8.66;100.00;97249.50;4918149;29;20244;-64
2022/10/05 04:13:16;;;;;;;2.47;2.27;;;;;;;8.68;100.00;97252.84;4918241;29;20299;-64
2022/10/05 04:15:47;;;;;;;2.37;1.80;;;;;;;8.68;100.00;97250.22;4918304;29;20295;-65
2022/10/05 04:18:21;;;;;;;1.90;1.80;;;;;;;8.66;100.00;97252.16;4918255;29;20303;-64
2022/10/05 04:20:51;;;;;;;4.20;2.07;;;;;;;8.64;100.00;97248.81;4918137;29;20212;-65
2022/10/05 04:23:23;;;;;;;3.27;2.50;;;;;;;8.65;100.00;97254.88;4917739;29;20721;-64
2022/10/05 04:25:52;;;;;;;2.27;2.10;;;;;;;8.65;100.00;97258.38;4917313;29;20315;-64
2022/10/05 04:28:25;;;;;;;2.37;2.17;;;;;;;8.60;100.00;97255.25;4905651;29;20303;-64
2022/10/05 04:30:53;;;;;;;2.03;1.93;;;;;;;8.53;100.00;97259.31;4917677;29;20218;-65
2022/10/05 04:33:21;;;;;;;2.97;2.30;;;;;;;8.57;100.00;97263.41;4917897;29;20664;-64
2022/10/05 04:36:06;;;;;;;4.43;2.23;;;;;;;8.55;100.00;97264.44;4917771;29;20302;-63
2022/10/05 04:38:47;;;;;;;3.27;2.37;;;;;;;8.55;100.00;97264.44;4917866;29;20203;-64
2022/10/05 04:41:26;;;;;;;2.23;1.90;;;;;;;8.54;100.00;97253.06;4905458;29;20399;-63
2022/10/05 04:44:03;;;;;;;2.80;2.10;;;;;;;8.54;100.00;97252.25;4917698;29;20252;-63
2022/10/05 04:46:39;;;;;;;2.03;1.80;;;;;;;8.50;100.00;97262.19;4896563;29;20699;-64
2022/10/05 04:49:21;;;;;;;2.07;1.97;;;;;;;8.52;100.00;97256.78;4888541;29;20292;-64
2022/10/05 04:51:53;;;;;;;3.00;2.20;;;;;;;8.55;100.00;97249.47;4886747;29;20295;-64
2022/10/05 04:54:26;;;;;;;2.27;2.10;;;;;;;8.51;100.00;97248.03;4886812;29;20304;-64
2022/10/05 04:56:55;;;;;;;2.10;1.90;;;;;;;8.53;100.00;97256.66;4886326;29;20280;-64
2022/10/05 04:59:54;;;;;;;2.23;2.10;;;;;;;8.53;100.00;97248.75;4887052;29;20222;-65
2022/10/05 05:02:26;;;;;;;3.47;2.17;;;;;;;8.52;100.00;97257.63;4854874;29;20319;-65
2022/10/05 05:05:22;;;;;;;3.37;2.30;;;;;;;8.55;100.00;97267.94;4894041;29;20240;-65
2022/10/05 05:07:53;;;;;;;2.37;2.00;;;;;;;8.54;100.00;97268.88;4884658;29;20310;-66
2022/10/05 05:10:38;;;;;;;2.33;2.10;;;;;;;8.55;100.00;97270.56;4887545;29;20714;-67
2022/10/05 05:13:17;;;;;;;2.80;2.10;;;;;;;8.57;100.00;97271.31;4886001;29;20216;-66
2022/10/05 05:15:48;;;;;;;2.47;2.00;;;;;;;8.57;100.00;97275.72;4886422;29;20327;-66
2022/10/05 05:18:41;;;;;;;2.50;2.30;;;;;;;8.48;100.00;97278.09;4886646;29;20197;-66
2022/10/05 05:21:16;;;;;;;3.13;2.00;;;;;;;8.50;100.00;97273.53;4886610;29;20216;-65
2022/10/05 05:23:49;;;;;;;2.40;2.20;;;;;;;8.50;100.00;97285.91;4886085;29;20287;-66
2022/10/05 05:26:22;;;;;;;2.13;2.00;;;;;;;8.55;100.00;97275.84;4886705;29;20220;-66
2022/10/05 05:28:54;;;;;;;3.30;2.70;;;;;;;8.56;100.00;97277.53;4885936;29;20595;-65
2022/10/05 05:31:28;;;;;;;5.27;2.57;;;;;;;8.58;100.00;97280.03;4885008;29;20296;-66
2022/10/05 05:34:02;;;;;;;4.13;3.73;;;;;;;8.58;100.00;97282.66;4886501;29;21464;-65
2022/10/05 05:36:50;;;;;;;3.50;3.20;;;;;;;8.59;100.00;97287.84;4887199;29;20290;-64
2022/10/05 05:39:24;;;;;;;5.23;3.60;;;;;;;8.63;100.00;97281.38;4890115;29;20541;-64
2022/10/05 05:41:59;;;;;;;3.77;3.47;;;;;;;8.60;100.00;97276.34;4889809;29;20219;-66
2022/10/05 05:44:27;;;;;;;3.53;3.20;;;;;;;8.62;100.00;97282.31;4893871;29;20909;-64
2022/10/05 05:46:59;;;;;;;8.57;4.43;;;;;;;8.61;100.00;97277.19;4908196;29;20323;-64
2022/10/05 05:49:32;;;;;;;9.77;7.17;;;;;;;8.64;100.00;97277.78;4908644;29;20192;-64
2022/10/05 05:52:04;;;;;;;4.60;3.03;;;;;;;8.60;100.00;97283.41;4908099;29;20855;-64
2022/10/05 05:54:34;;;;;;;3.40;3.10;;;;;;;8.64;100.00;97285.72;4908607;29;20291;-63
2022/10/05 05:57:09;;;;;;;3.20;3.00;;;;;;;8.66;100.00;97283.78;4908587;29;20212;-65
2022/10/05 05:59:48;;;;;;;3.23;2.87;;;;;;;8.69;100.00;97277.44;4908578;29;20215;-65
2022/10/05 06:02:18;;;;;;;3.10;2.90;;;;;;;8.76;100.00;97274.22;4908174;29;20295;-63
2022/10/05 06:04:47;;;;;;;2.87;2.67;;;;;;;8.81;100.00;97282.63;4907922;29;20211;-64
2022/10/05 06:07:19;;;;;;;4.20;2.67;;;;;;;8.87;100.00;97281.31;4908099;29;20304;-66
2022/10/05 06:09:47;;;;;;;3.03;2.83;;;;;;;8.87;100.00;97281.31;4908580;29;20263;-63
2022/10/05 06:12:16;;;;;;;3.00;2.80;;;;;;;8.87;100.00;97287.44;4908155;29;20294;-67
2022/10/05 06:14:46;;;;;;;2.83;2.67;;;;;;;8.89;100.00;97276.78;4908047;29;20290;-64
2022/10/05 06:17:17;;;;;;;2.90;2.60;;;;;;;8.89;100.00;97280.22;4907903;29;20279;-65
2022/10/05 06:19:44;;;;;;;4.27;2.77;;;;;;;8.99;100.00;97289.16;4907907;29;20320;-65
2022/10/05 06:22:18;;;;;;;3.20;3.00;;;;;;;9.09;100.00;97284.00;4907591;29;20208;-64
2022/10/05 06:24:53;;;;;;;3.13;2.90;;;;;;;9.14;100.00;97283.66;4907810;29;20247;-65
2022/10/05 06:27:27;;;;;;;3.30;3.00;;;;;;;9.22;100.00;97278.59;4907898;29;21411;-63
2022/10/05 06:30:02;;;;;;;3.70;3.30;;;;;;;9.28;100.00;97280.78;4907697;29;20287;-65
2022/10/05 06:32:30;;;;;;;5.33;3.67;;;;;;;9.43;100.00;97284.84;4906884;29;20612;-65
2022/10/05 06:35:06;;;;;;;3.93;3.20;;;;;;;9.63;100.00;97288.56;4907882;29;20288;-63
2022/10/05 06:37:46;;;;;;;3.70;3.40;;;;;;;9.72;100.00;97291.31;4907186;29;20212;-64
2022/10/05 06:40:19;;;;;;;3.97;3.57;;;;;;;9.80;100.00;97288.91;4907105;29;20298;-65
2022/10/05 06:42:56;;;;;;;5.83;3.70;;;;;;;9.81;100.00;97292.38;4907122;29;20200;-65
2022/10/05 06:45:30;;;;;;;4.80;4.30;;;;;;;9.87;100.00;97290.09;4907080;29;20335;-64
2022/10/05 06:48:02;;;;;;;4.97;3.50;;;;;;;9.93;100.00;97289.59;4906501;29;20553;-65
2022/10/05 06:50:34;;;;;;;4.83;3.90;;;;;;;9.97;100.00;97287.53;4907998;29;20259;-65
2022/10/05 06:53:14;;;;;;;4.17;3.87;;;;;;;10.02;100.00;97284.53;4907526;29;20207;-64
2022/10/05 06:55:46;;;;;;;4.33;3.60;;;;;;;10.05;100.00;97292.22;4907643;29;20291;-65
2022/10/05 06:58:26;;;;;;;5.20;3.87;;;;;;;10.11;100.00;97297.84;4907220;29;20554;-64
2022/10/05 07:00:55;;;;;;;4.10;3.80;;;;;;;10.18;100.00;97300.84;4907045;29;20264;-65
2022/10/05 07:03:30;;;;;;;4.73;3.80;;;;;;;10.24;100.00;97297.69;4907436;29;20604;-66
2022/10/05 07:06:06;;;;;;;5.07;4.10;;;;;;;10.26;100.00;97299.28;4890801;29;20295;-64
2022/10/05 07:09:02;;;;;;;3.87;3.57;;;;;;;10.35;100.00;97306.44;4908166;29;20224;-64
2022/10/05 07:11:43;;;;;;;4.30;3.90;;;;;;;10.43;100.00;97309.31;4907362;29;20291;-64
2022/10/05 07:14:18;;;;;;;9.43;5.00;;;;;;;10.53;100.00;97314.66;4907594;29;20303;-64
2022/10/05 07:16:55;;;;;;;6.57;4.60;;;;;;;10.59;100.00;97313.34;4907393;29;20204;-65
2022/10/05 07:19:31;;;;;;;6.33;4.97;;;;;;;10.62;100.00;97313.09;4907173;29;20210;-65
2022/10/05 07:22:19;;;;;;;5.70;4.87;;;;;;;10.69;100.00;97320.38;4907347;29;20204;-66
2022/10/05 07:24:51;;;;;;;6.03;5.37;;;;;;;10.74;100.00;97310.25;4906567;29;20325;-65
2022/10/05 07:27:20;;;;;;;8.53;5.07;;;;;;;10.81;100.00;97314.06;4906298;29;20214;-65
2022/10/05 07:29:50;;;;;;;5.07;4.57;;;;;;;10.91;100.00;97308.84;4906465;29;20204;-64
2022/10/05 07:32:27;;;;;;;5.20;4.80;;;;;;;10.97;100.00;97314.47;4908356;29;20227;-65
2022/10/05 07:35:01;;;;;;;6.70;4.90;;;;;;;11.07;100.00;97313.69;4910056;29;20195;-65
2022/10/05 07:40:22;;;;;;;5.60;5.00;;;;;;;11.15;100.00;97319.16;4911592;29;20620;-66
2022/10/05 07:42:58;;;;;;;5.40;4.90;;;;;;;11.24;100.00;97321.03;4910182;29;20222;-65
2022/10/05 07:45:28;;;;;;;5.47;4.93;;;;;;;11.28;100.00;97325.94;4910419;29;20921;-65
2022/10/05 07:47:57;;;;;;;4.33;4.00;;;;;;;11.34;100.00;97321.91;4915424;29;20347;-64
2022/10/05 07:50:27;;;;;;;5.10;4.60;;;;;;;11.41;100.00;97323.06;4890631;29;20339;-65
2022/10/05 07:52:56;;;;;;;4.57;4.23;;;;;;;11.45;100.00;97325.31;4906587;29;20208;-65
2022/10/05 07:55:26;;;;;;;4.67;4.27;;;;;;;11.52;100.00;97325.63;4906296;29;20300;-65
2022/10/05 07:58:02;;;;;;;4.40;4.00;;;;;;;11.61;100.00;97326.66;4906718;29;20208;-64
2022/10/05 08:00:49;;;;;;;4.70;4.30;;;;;;;11.68;100.00;97330.47;4906074;29;20311;-65
2022/10/05 08:03:23;;;;;;;5.43;3.97;;;;;;;11.77;100.00;97334.97;4905766;29;20224;-66
2022/10/05 08:05:50;;;;;;;4.20;3.73;;;;;;;11.85;100.00;97328.06;4905869;29;20211;-65
2022/10/05 08:08:22;;;;;;;5.60;3.80;;;;;;;11.93;100.00;97330.88;4905673;29;20228;-64
2022/10/05 08:10:55;;;;;;;4.80;4.30;;;;;;;12.01;100.00;97322.22;4905363;29;20708;-65
2022/10/05 08:13:26;;;;;;;4.57;4.17;;;;;;;12.10;100.00;97331.19;4906111;29;20204;-65
2022/10/05 08:15:55;;;;;;;5.40;4.60;;;;;;;12.15;100.00;97323.69;4906097;29;20218;-65
2022/10/05 08:18:37;;;;;;;9.07;5.17;;;;;;;12.24;100.00;97328.16;4906336;29;20289;-65
2022/10/05 08:21:10;;;;;;;6.10;4.33;;;;;;;12.33;100.00;97319.38;4906212;29;20602;-66
2022/10/05 08:23:42;;;;;;;4.60;4.23;;;;;;;12.40;100.00;97309.88;4906146;29;20572;-64
2022/10/05 08:26:17;;;;;;;4.63;4.10;;;;;;;12.49;100.00;97306.41;4906329;29;20205;-65
2022/10/05 08:28:51;;;;;;;8.07;4.20;;;;;;;12.61;100.00;97310.59;4905922;29;20298;-65
2022/10/05 08:31:21;;;;;;;6.50;4.20;;;;;;;12.71;100.00;97311.47;4905746;29;20253;-64
2022/10/05 08:33:55;;;;;;;5.27;3.67;;;;;;;12.83;100.00;97314.78;4910201;29;20288;-65
2022/10/05 08:36:33;;;;;;;8.13;4.20;;;;;;;12.91;100.00;97310.47;4914464;29;20291;-65
2022/10/05 08:39:02;;;;;;;3.87;3.47;;;;;;;13.03;100.00;97310.31;4913689;29;20291;-66
2022/10/05 08:42:07;;;;;;;4.50;4.03;;;;;;;13.16;100.00;97306.41;4924242;29;20203;-66
2022/10/05 08:45:09;;;;;;;4.50;4.10;;;;;;;13.27;100.00;97300.09;4848553;29;20292;-65
2022/10/05 08:48:10;;;;;;;3.97;3.67;;;;;;;13.40;100.00;97305.91;4907774;29;20234;-65
2022/10/05 08:51:12;;;;;;;5.43;3.70;;;;;;;13.54;100.00;97309.94;4926543;29;20204;-65
2022/10/05 08:54:24;;;;;;;3.80;3.50;;;;;;;13.71;100.00;97304.69;4914981;29;20204;-67
2022/10/05 08:57:01;;;;;;;5.17;3.67;;;;;;;13.93;100.00;97306.97;4878827;29;20186;-66
2022/10/05 08:59:50;;;;;;;7.47;4.10;;;;;;;14.14;100.00;97309.38;4877428;29;20478;-65
2022/10/05 09:02:23;;;;;;;3.83;3.27;;;;;;;14.38;100.00;97306.19;4895021;29;20240;-64
2022/10/05 09:05:09;;;;;;;4.33;3.07;;;;;;;14.68;99.32;97313.81;4905766;29;20589;-64
2022/10/05 09:07:50;;;;;;;2.93;2.70;;;;;;;15.00;94.81;97304.44;4905058;29;20232;-64
2022/10/05 09:10:50;;;;;;;5.63;3.17;;;;;;;15.33;93.58;97309.03;4905861;29;20312;-66
2022/10/05 09:13:30;;;;;;;5.47;2.53;;;;;;;15.71;93.77;97303.28;4909048;29;20290;-65
2022/10/05 09:16:20;;;;;;;5.80;2.20;;;;;;;16.07;92.83;97308.44;4908844;29;20645;-64
2022/10/05 09:19:28;;;;;;;2.40;2.20;;;;;;;16.44;89.30;97308.88;4908644;29;20295;-64
2022/10/05 09:21:57;;;;;;;3.55;2.15;;;;;;;16.80;86.82;97318.34;4908901;29;20314;-64
2022/10/05 09:24:28;;;;;;;2.05;1.95;;;;;;;17.17;86.46;97304.50;4909081;29;20298;-64
2022/10/05 09:27:02;;;;;;;4.47;2.45;;;;;;;17.54;84.68;97306.59;4908388;29;20310;-65
2022/10/05 09:30:08;;;;;;;5.32;2.20;;;;;;;17.92;81.87;97310.41;4908982;29;20255;-65
2022/10/05 09:32:59;;;;;;;3.25;2.38;;;;;;;18.23;79.08;97297.91;4909007;29;20287;-65
2022/10/05 09:36:07;;;;;;;3.50;2.40;;;;;;;18.51;75.86;97303.63;4908953;29;20243;-65
2022/10/05 09:38:43;;;;;;;2.22;2.00;;;;;;;18.92;77.46;97298.00;4908947;29;20291;-66
2022/10/05 09:41:34;;;;;;;2.92;1.92;;;;;;;19.24;76.29;97295.03;4909306;29;20212;-65
2022/10/05 09:44:22;;;;;;;8.57;3.13;;;;;;;19.56;73.50;97297.44;4909006;29;20242;-64
2022/10/05 09:47:16;;;;;;;2.97;1.90;;;;;;;19.83;71.46;97296.00;4908615;29;20215;-63
2022/10/05 09:50:19;;;;;;;4.53;2.28;;;;;;;20.08;69.42;97294.72;4873346;29;20299;-64
2022/10/05 09:53:11;;;;;;;3.13;1.88;;;;;;;20.35;68.24;97293.22;4908429;29;20212;-66
2022/10/05 09:55:52;;;;;;;1.83;1.73;;;;;;;20.49;68.19;97294.19;4905231;29;20327;-66
2022/10/05 09:58:57;;;;;;;1.90;1.50;;;;;;;20.71;65.51;97296.75;4909727;29;20292;-64
2022/10/05 10:01:34;;;;;;;4.05;1.70;;;;;;;20.98;65.83;97289.75;4910499;29;20226;-65
2022/10/05 10:04:11;;;;;;;2.03;1.50;;;;;;;21.07;65.74;97294.00;4912196;29;20267;-66
2022/10/05 10:07:12;;;;;;;2.75;1.58;;;;;;;21.17;63.98;97283.78;4929191;29;20185;-67
2022/10/05 10:09:49;;;;;;;4.43;2.20;;;;;;;21.25;61.74;97283.66;4886392;29;20208;-66
2022/10/05 10:12:35;;;;;;;1.40;1.30;;;;;;;21.47;62.28;97281.72;4918582;29;20200;-64
2022/10/05 10:15:40;;;;;;;1.75;1.55;;;;;;;21.48;59.22;97275.31;4908985;29;20307;-64
2022/10/05 10:18:27;;;;;;;2.83;1.60;;;;;;;21.77;60.34;97285.88;4908284;29;20294;-65
2022/10/05 10:21:10;;;;;;;1.95;1.70;;;;;;;21.87;60.42;97271.22;4907971;29;20666;-64
2022/10/05 10:23:58;;;;;;;2.92;1.52;;;;;;;22.01;59.77;97281.91;4907888;29;20402;-64
2022/10/05 10:26:49;;;;;;;2.40;1.52;;;;;;;22.13;59.18;97279.50;4907829;29;20533;-66
2022/10/05 10:29:41;;;;;;;4.63;1.30;;;;;;;22.22;59.02;97267.50;4907896;29;20287;-67
2022/10/05 10:32:36;;;;;;;1.38;1.27;;;;;;;21.84;58.82;97265.22;4907268;29;20717;-65
2022/10/05 10:35:20;;;;;;;2.13;1.30;;;;;;;22.07;59.60;97269.53;4907323;29;20303;-64
2022/10/05 10:38:27;;;;;;;1.50;1.40;;;;;;;22.32;60.85;97270.66;4907598;29;20283;-65
2022/10/05 10:41:20;;;;;;;2.70;1.50;;;;;;;22.55;59.29;97268.47;4907809;29;20262;-64
2022/10/05 10:44:15;;;;;;;2.22;1.45;;;;;;;22.74;57.82;97273.09;4907750;29;20290;-64
2022/10/05 10:46:48;;;;;;;3.30;1.48;;;;;;;22.86;56.00;97273.34;4875658;29;20664;-67
2022/10/05 10:49:25;;;;;;;3.53;1.70;;;;;;;22.81;56.20;97255.06;4907254;29;20204;-64
2022/10/05 10:52:11;;;;;;;2.58;1.25;;;;;;;22.83;56.41;97264.81;4907222;29;20208;-65
2022/10/05 10:55:07;;;;;;;3.72;1.55;;;;;;;23.00;58.52;97255.28;4907168;29;20208;-64
2022/10/05 10:57:45;;;;;;;1.80;1.35;;;;;;;23.09;58.03;97252.22;4890762;29;20240;-65
2022/10/05 11:00:23;;;;;;;2.78;1.50;;;;;;;23.11;56.00;97252.00;4907518;29;20598;-63
2022/10/05 11:03:22;;;;;;;1.20;1.10;;;;;;;23.37;56.07;97261.97;4907211;29;20235;-65
2022/10/05 11:06:16;;;;;;;1.63;1.52;;;;;;;23.45;55.48;97262.63;4906920;29;20266;-63
2022/10/05 11:09:12;;;;;;;2.78;2.00;;;;;;;23.45;56.79;97248.31;4907297;29;20228;-65
2022/10/05 11:12:16;;;;;;;1.50;1.40;;;;;;;23.51;57.01;97253.69;4907284;29;20286;-63
2022/10/05 11:14:51;;;;;;;1.35;1.35;;;;;;;23.59;56.78;97252.66;4906903;29;20676;-63
2022/10/05 11:17:28;;;;;;;2.20;1.70;;;;;;;23.64;55.48;97250.97;4907061;29;20208;-64
2022/10/05 11:20:08;;;;;;;1.70;1.60;;;;;;;23.61;54.96;97245.97;4907113;29;20208;-63
2022/10/05 11:22:50;;;;;;;1.50;1.40;;;;;;;23.66;56.76;97246.19;4906711;29;20287;-63
2022/10/05 11:25:27;;;;;;;1.67;1.58;;;;;;;23.57;54.15;97235.81;4906659;29;20223;-62
2022/10/05 11:28:02;;;;;;;3.35;1.65;;;;;;;23.53;55.79;97235.41;4906632;29;20326;-64
2022/10/05 11:30:49;;;;;;;3.70;1.73;;;;;;;23.61;56.36;97227.09;4906103;29;20291;-64
2022/10/05 11:33:41;;;;;;;1.60;1.50;;;;;;;23.73;57.33;97225.41;4906774;29;20303;-63
2022/10/05 11:36:29;;;;;;;3.45;1.88;;;;;;;23.89;56.15;97232.19;4907386;29;20279;-64
2022/10/05 11:39:32;;;;;;;4.20;1.75;;;;;;;23.94;54.65;97231.56;4907014;29;20283;-63
2022/10/05 11:42:28;;;;;;;1.95;1.50;;;;;;;23.99;54.24;97218.25;4906654;29;20242;-63
2022/10/05 11:45:20;;;;;;;1.92;1.67;;;;;;;23.82;55.94;97217.88;4908014;29;20623;-63
2022/10/05 11:48:22;;;;;;;1.67;1.58;;;;;;;23.94;55.43;97210.78;4906723;29;20223;-63
2022/10/05 11:51:04;;;;;;;1.77;1.25;;;;;;;24.03;54.08;97198.69;4906262;29;20286;-63
2022/10/05 11:53:36;;;;;;;2.03;1.30;;;;;;;24.10;54.93;97209.47;4907172;29;20200;-64
2022/10/05 11:56:09;;;;;;;1.73;1.63;;;;;;;24.26;55.95;97200.94;4907659;29;20204;-63
2022/10/05 11:58:40;;;;;;;1.67;1.58;;;;;;;24.15;53.36;97198.91;4906425;29;20242;-63
2022/10/05 12:01:14;;;;;;;2.63;1.80;;;;;;;24.15;55.31;97194.31;4906953;29;20291;-63
2022/10/05 12:03:47;;;;;;;1.52;1.42;;;;;;;24.19;56.09;97192.03;4905126;29;20238;-63
2022/10/05 12:06:41;;;;;;;1.73;1.63;;;;;;;24.11;53.13;97181.41;4907313;29;20947;-61
2022/10/05 12:09:20;;;;;;;2.30;1.58;;;;;;;23.99;54.58;97185.81;4903846;29;20323;-62
2022/10/05 12:11:57;;;;;;;1.83;1.50;;;;;;;23.93;56.24;97192.09;4904755;29;20215;-63
2022/10/05 12:14:33;;;;;;;1.73;1.63;;;;;;;23.82;53.81;97177.38;4907463;29;20255;-63
2022/10/05 12:17:03;;;;;;;1.80;1.67;;;;;;;23.72;54.33;97179.69;4907073;29;20203;-62
2022/10/05 12:19:35;;;;;;;1.98;1.60;;;;;;;23.62;54.10;97180.16;4907149;29;20228;-62
2022/10/05 12:22:14;;;;;;;1.92;1.70;;;;;;;23.64;55.18;97182.63;4906483;29;20201;-62